Wabash, IN

2:20 AM EST on February 13, 2016 (GMT -0500)
South of RoAnn, In. | | Change Station
CLOSE
Current Station
Personal Weather Station
Location: Wabash, IN
Elevation: 769 ft
Nearby Weather Stations

Elev 769 ft 40.89 °N, 85.92 °W | Updated 7 seconds ago

Overcast
Overcast
11.1 °F
Feels Like 3 °F
N
5.0
Wind Variable Wind from NW
Gusts 9.0 mph

Today
High -- | Low -- °F
--% Chance of Precip.
Yesterday
High -- | Low -- °F
Precip. -- in
Pressure 30.37 in
Visibility 3.0 miles
Clouds Mostly Cloudy 700 ft
Overcast 1200 ft
Windchill 3 °F
Dew Point 8 °F
Humidity 85%
Rainfall 0.00 in
Snow Depth Not available.
7:41 AM 6:15 PM
Waxing Crescent, 28% visible
METAR KRCR 130655Z AUTO 31010KT 3SM -SN BKN007 OVC012 M10/M14 A3037 RMK AO2
Pressure 30.37 in
Visibility 3.0 miles
Clouds Mostly Cloudy 700 ft
Overcast 1200 ft
Windchill 3 °F
Dew Point 8 °F
Humidity 85%
Rainfall 0.00 in
Snow Depth Not available.
7:41 AM 6:15 PM
Waxing Crescent, 28% visible
METAR KRCR 130655Z AUTO 31010KT 3SM -SN BKN007 OVC012 M10/M14 A3037 RMK AO2

10-Day Weather Forecast

Almanac

Astronomy

Feb. 13, 2016 Rise Set
Actual Time
Civil Twilight
Nautical Twilight
Astronomical Twilight
Moon
Length of Visible Light
Length of Day
Tomorrow will be .
, % of the Moon is Illuminated

Today's Extremes

State Highs State Lows

Community

WunderPhotos

Upload Photos

1,892,526 photos uploaded!

WunderBlog® & News

Nearby

Air Quality

  Air Quality AQ Index Pollutant
Not available.

Snow Depth

Station Depth Elevation

Earthquake Activity

City Distance Mag. Time & Date
Minimum magnitude displayed is 2.5.

Coastal Water Temperatures

Place Temperature

Stations

Nearby Weather Stations

Station Location Temp. Windchill Dew Point Humidity Wind Precip. Elev Updated Type
                   

Watches & Warnings

There are currently no watches in effect.